Time,TemperatureF,DewpointF,PressureIn,WindDirection,WindDirectionDegrees,WindSpeedMPH,WindSpeedGustMPH,Humidity,HourlyPrecipIn,Conditions,Clouds,dailyrainin,SoftwareType,DateUTC
2013-05-30 00:00:00,48.0,-99.9,29.97,ENE,60,3.0,-999.0,-999,-99.99,,,-99.99,,2013-05-30 04:00:00,
2013-05-30 00:23:00,48.0,-99.9,29.97,ENE,60,3.0,-999.0,-999,-99.99,,,-99.99,,2013-05-30 04:23:00,
2013-05-30 00:33:00,48.0,-99.9,29.97,ENE,60,3.0,-999.0,-999,-99.99,,,-99.99,,2013-05-30 04:33:00,
2013-05-30 00:42:00,48.0,-99.9,29.97,ENE,60,3.0,-999.0,-999,-99.99,,,-99.99,,2013-05-30 04:42:00,
2013-05-30 00:53:00,48.0,-99.9,29.97,ENE,60,3.0,-999.0,-999,-99.99,,,-99.99,,2013-05-30 04:53:00,
2013-05-30 04:00:00,50.0,-99.9,29.93,South,180,16.0,-999.0,-999,-99.99,,,-99.99,,2013-05-30 08:00:00,
2013-05-30 04:42:00,50.0,-99.9,29.93,South,180,16.0,-999.0,-999,-99.99,,,-99.99,,2013-05-30 08:42:00,
2013-05-30 04:53:00,50.0,-99.9,29.93,South,180,16.0,-999.0,-999,-99.99,,,-99.99,,2013-05-30 08:53:00,
2013-05-30 05:00:00,51.0,-99.9,29.92,SSE,160,22.0,-999.0,-999,-99.99,,,-99.99,,2013-05-30 09:00:00,
2013-05-30 05:22:00,51.0,-99.9,29.92,SSE,160,22.0,-999.0,-999,-99.99,,,-99.99,,2013-05-30 09:22:00,
2013-05-30 05:33:00,51.0,-99.9,29.92,SSE,160,22.0,-999.0,-999,-99.99,,,-99.99,,2013-05-30 09:33:00,
2013-05-30 05:43:00,51.0,-99.9,29.92,SSE,160,22.0,-999.0,-999,-99.99,,,-99.99,,2013-05-30 09:43:00,
2013-05-30 05:53:00,51.0,-99.9,29.92,SSE,160,22.0,-999.0,-999,-99.99,,,-99.99,,2013-05-30 09:53:00,
2013-05-30 06:00:00,51.0,-99.9,29.93,South,180,22.0,-999.0,-999,-99.99,,,-99.99,,2013-05-30 10:00:00,
2013-05-30 06:33:00,51.0,-99.9,29.93,South,180,22.0,-999.0,-999,-99.99,,,-99.99,,2013-05-30 10:33:00,
2013-05-30 06:42:00,51.0,-99.9,29.93,South,180,22.0,-999.0,-999,-99.99,,,-99.99,,2013-05-30 10:42:00,
2013-05-30 06:52:00,51.0,-99.9,29.93,South,180,22.0,-999.0,-999,-99.99,,,-99.99,,2013-05-30 10:52:00,
2013-05-30 07:00:00,51.0,-99.9,29.94,SSE,160,18.0,-999.0,-999,-99.99,,,-99.99,,2013-05-30 11:00:00,
2013-05-30 07:22:00,51.0,-99.9,29.94,SSE,160,18.0,-999.0,-999,-99.99,,,-99.99,,2013-05-30 11:22:00,
2013-05-30 07:32:00,51.0,-99.9,29.94,SSE,160,18.0,-999.0,-999,-99.99,,,-99.99,,2013-05-30 11:32:00,
2013-05-30 07:42:00,51.0,-99.9,29.94,SSE,160,18.0,-999.0,-999,-99.99,,,-99.99,,2013-05-30 11:42:00,
2013-05-30 07:52:00,51.0,-99.9,29.94,SSE,160,18.0,-999.0,-999,-99.99,,,-99.99,,2013-05-30 11:52:00,
2013-05-30 08:32:00,52.0,-99.9,29.92,South,170,24.0,-999.0,-999,-99.99,,,-99.99,,2013-05-30 12:32:00,
2013-05-30 08:42:00,52.0,-99.9,29.92,South,170,24.0,-999.0,-999,-99.99,,,-99.99,,2013-05-30 12:42:00,
2013-05-30 08:52:00,52.0,-99.9,29.92,South,170,24.0,-999.0,-999,-99.99,,,-99.99,,2013-05-30 12:52:00,
2013-05-30 09:22:00,52.0,-99.9,29.94,South,180,25.0,-999.0,-999,-99.99,,,-99.99,,2013-05-30 13:22:00,
2013-05-30 09:32:00,52.0,-99.9,29.94,South,180,25.0,-999.0,-999,-99.99,,,-99.99,,2013-05-30 13:32:00,
2013-05-30 10:22:00,53.0,-99.9,29.94,South,170,26.0,-999.0,-999,-99.99,,,-99.99,,2013-05-30 14:22:00,
2013-05-30 10:32:00,53.0,-99.9,29.94,South,170,26.0,-999.0,-999,-99.99,,,-99.99,,2013-05-30 14:32:00,
2013-05-30 11:22:00,52.0,-99.9,29.94,South,170,26.0,-999.0,-999,-99.99,,,-99.99,,2013-05-30 15:22:00,
2013-05-30 11:34:00,52.0,-99.9,29.94,South,170,26.0,-999.0,-999,-99.99,,,-99.99,,2013-05-30 15:34:00,
2013-05-30 12:23:00,53.0,-99.9,29.95,South,170,28.0,-999.0,-999,-99.99,,,-99.99,,2013-05-30 16:23:00,
2013-05-30 12:33:00,53.0,-99.9,29.95,South,170,28.0,-999.0,-999,-99.99,,,-99.99,,2013-05-30 16:33:00,
2013-05-30 19:00:00,67.0,-99.9,29.94,West,270,22.0,-999.0,-999,-99.99,,,-99.99,,2013-05-30 23:00:00,